createdAt,value
2022-12-01T00:01:08.420Z,11.63
2022-12-01T00:03:35.365Z,11.64
2022-12-01T00:06:07.177Z,11.64
2022-12-01T00:08:34.377Z,11.66
2022-12-01T00:11:05.843Z,11.65
2022-12-01T00:13:33.002Z,11.64
2022-12-01T00:16:13.167Z,11.65
2022-12-01T00:18:39.987Z,11.65
2022-12-01T00:21:07.041Z,11.64
2022-12-01T00:23:33.753Z,11.65
2022-12-01T00:26:06.471Z,11.65
2022-12-01T00:28:33.229Z,11.67
2022-12-01T00:31:00.240Z,11.68
2022-12-01T00:33:27.009Z,11.66
2022-12-01T00:36:00.113Z,11.66
2022-12-01T00:38:27.266Z,11.66
2022-12-01T00:40:53.965Z,11.66
2022-12-01T00:43:21.057Z,11.66
2022-12-01T00:45:48.004Z,11.66
2022-12-01T00:48:14.794Z,11.66
2022-12-01T00:50:41.466Z,11.66
2022-12-01T00:53:08.249Z,11.66
2022-12-01T00:55:35.522Z,11.66
2022-12-01T00:58:02.363Z,11.65
2022-12-01T01:00:29.104Z,11.63
2022-12-01T01:02:55.894Z,11.63
2022-12-01T01:05:22.985Z,11.64
2022-12-01T01:07:49.829Z,11.64
2022-12-01T01:10:16.546Z,11.63
2022-12-01T01:12:43.276Z,11.63
2022-12-01T01:15:10.393Z,11.61
2022-12-01T01:17:37.105Z,11.62
2022-12-01T01:20:04.405Z,11.61
2022-12-01T01:22:31.179Z,11.61
2022-12-01T01:24:57.840Z,11.61
2022-12-01T01:27:24.569Z,11.60
2022-12-01T01:29:51.295Z,11.58
2022-12-01T01:32:18.146Z,11.56
2022-12-01T01:34:45.613Z,11.55
2022-12-01T01:37:12.429Z,11.57
2022-12-01T01:39:39.062Z,11.58
2022-12-01T01:42:05.797Z,11.54
2022-12-01T01:44:50.837Z,11.51
2022-12-01T01:47:36.499Z,11.51
2022-12-01T01:50:09.302Z,11.46
2022-12-01T01:52:39.096Z,11.48
2022-12-01T01:55:06.242Z,11.50
2022-12-01T01:57:34.423Z,11.49
2022-12-01T02:00:11.687Z,11.49
2022-12-01T02:02:45.085Z,11.50
2022-12-01T02:05:20.602Z,11.47
2022-12-01T02:07:48.426Z,11.46
2022-12-01T02:10:22.347Z,11.44
2022-12-01T02:13:02.743Z,11.44
2022-12-01T02:16:03.510Z,11.46
2022-12-01T02:18:39.866Z,11.45
2022-12-01T02:21:31.455Z,11.43
2022-12-01T02:24:11.770Z,11.39
2022-12-01T02:26:49.685Z,11.37
2022-12-01T02:29:47.074Z,11.35
2022-12-01T02:32:38.748Z,11.32
2022-12-01T02:35:14.342Z,11.31
2022-12-01T02:37:48.513Z,11.30
2022-12-01T02:40:23.990Z,11.31
2022-12-01T02:43:03.654Z,11.29
2022-12-01T02:46:00.822Z,11.30
2022-12-01T02:48:30.209Z,11.28
2022-12-01T02:51:00.229Z,11.24
2022-12-01T02:53:27.124Z,11.26
2022-12-01T02:55:56.083Z,11.22
2022-12-01T02:58:22.825Z,11.23
2022-12-01T03:01:18.177Z,11.21
2022-12-01T03:03:58.540Z,11.17
2022-12-01T03:06:45.124Z,11.11
2022-12-01T03:09:14.816Z,11.00
2022-12-01T03:11:56.943Z,11.01
2022-12-01T03:14:40.805Z,10.95
2022-12-01T03:17:15.256Z,10.82
2022-12-01T03:19:49.889Z,10.75
2022-12-01T03:22:16.795Z,10.74
2022-12-01T03:24:46.875Z,10.64
2022-12-01T03:27:15.325Z,10.67
2022-12-01T03:29:47.019Z,10.60
2022-12-01T03:32:20.037Z,10.57
2022-12-01T03:35:08.911Z,10.61
2022-12-01T03:37:45.689Z,10.59
2022-12-01T03:40:18.143Z,10.51
2022-12-01T03:42:48.320Z,10.46
2022-12-01T03:45:18.486Z,10.52
2022-12-01T03:47:45.427Z,10.58
2022-12-01T03:50:14.194Z,10.63
2022-12-01T03:52:53.154Z,10.65
2022-12-01T03:55:22.985Z,10.65
2022-12-01T03:58:06.598Z,10.65
2022-12-01T04:00:33.596Z,10.64
2022-12-01T04:03:04.888Z,10.57
2022-12-01T04:05:33.512Z,10.53
2022-12-01T04:08:00.762Z,10.51
2022-12-01T04:10:27.646Z,10.47
2022-12-01T04:12:59.202Z,10.41
2022-12-01T04:15:26.922Z,10.46
2022-12-01T04:17:53.600Z,10.45
2022-12-01T04:20:20.623Z,10.48
2022-12-01T04:22:47.787Z,10.51
2022-12-01T04:25:14.498Z,10.54
2022-12-01T04:27:41.211Z,10.57
2022-12-01T04:30:08.459Z,10.58
2022-12-01T04:32:42.837Z,10.58
2022-12-01T04:35:16.593Z,10.57
2022-12-01T04:37:44.738Z,10.57
2022-12-01T04:40:11.922Z,10.56
2022-12-01T04:42:38.671Z,10.58
2022-12-01T04:45:06.095Z,10.56
2022-12-01T04:47:32.833Z,10.55
2022-12-01T04:50:00.545Z,10.56
2022-12-01T04:52:32.042Z,10.57
2022-12-01T04:55:01.794Z,10.58
2022-12-01T04:57:28.522Z,10.58
2022-12-01T04:59:55.278Z,10.56
2022-12-01T05:02:22.058Z,10.56
2022-12-01T05:04:48.918Z,10.57
2022-12-01T05:07:15.675Z,10.58
2022-12-01T05:09:42.552Z,10.55
2022-12-01T05:12:10.118Z,10.51
2022-12-01T05:14:36.867Z,10.48
2022-12-01T05:17:03.631Z,10.48
2022-12-01T05:19:48.960Z,10.49
2022-12-01T05:22:15.848Z,10.48
2022-12-01T05:24:42.598Z,10.47
2022-12-01T05:27:09.213Z,10.44
2022-12-01T05:29:35.992Z,10.42
2022-12-01T05:32:03.723Z,10.41
2022-12-01T05:34:30.688Z,10.42
2022-12-01T05:36:57.381Z,10.42
2022-12-01T05:39:24.107Z,10.41
2022-12-01T05:41:50.749Z,10.42
2022-12-01T05:44:17.511Z,10.42
2022-12-01T05:46:44.172Z,10.41
2022-12-01T05:49:10.964Z,10.39
2022-12-01T05:51:37.754Z,10.37
2022-12-01T05:54:04.585Z,10.36
2022-12-01T05:56:31.319Z,10.37
2022-12-01T05:58:58.069Z,10.35
2022-12-01T06:01:24.881Z,10.35
2022-12-01T06:03:53.252Z,10.34
2022-12-01T06:06:20.341Z,10.31
2022-12-01T06:08:47.497Z,10.32
2022-12-01T06:11:14.401Z,10.32
2022-12-01T06:13:41.487Z,10.33
2022-12-01T06:16:08.957Z,10.33
2022-12-01T06:18:39.028Z,10.33
2022-12-01T06:21:07.065Z,10.34
2022-12-01T06:23:35.159Z,10.31
2022-12-01T06:26:02.818Z,10.30
2022-12-01T06:28:29.790Z,10.27
2022-12-01T06:31:01.276Z,10.27
2022-12-01T06:33:29.773Z,10.28
2022-12-01T06:36:05.050Z,10.26
2022-12-01T06:38:34.297Z,10.27
2022-12-01T06:41:01.335Z,10.27
2022-12-01T06:43:28.392Z,10.16
2022-12-01T06:46:01.193Z,9.86
2022-12-01T06:48:42.731Z,9.36
2022-12-01T06:51:11.005Z,8.97
2022-12-01T06:53:38.657Z,8.71
2022-12-01T06:56:06.678Z,8.51
2022-12-01T06:58:34.794Z,8.30
2022-12-01T07:01:09.255Z,8.17
2022-12-01T07:03:36.093Z,8.15
2022-12-01T07:06:04.452Z,8.11
2022-12-01T07:08:32.800Z,7.97
2022-12-01T07:11:01.359Z,7.92
2022-12-01T07:13:33.385Z,7.88
2022-12-01T07:16:04.624Z,7.75
2022-12-01T07:18:32.186Z,7.62
2022-12-01T07:21:07.325Z,7.65
2022-12-01T07:23:34.766Z,7.62
2022-12-01T07:26:03.619Z,7.56
2022-12-01T07:28:30.621Z,7.49
2022-12-01T07:31:13.902Z,7.50
2022-12-01T07:33:40.837Z,7.38
2022-12-01T07:36:08.471Z,7.38
2022-12-01T07:38:44.452Z,7.42
2022-12-01T07:41:21.885Z,7.32
2022-12-01T07:43:50.935Z,7.39
2022-12-01T07:46:23.228Z,7.19
2022-12-01T07:48:51.958Z,7.09
2022-12-01T07:51:19.195Z,7.04
2022-12-01T07:53:48.155Z,7.04
2022-12-01T07:56:16.078Z,7.03
2022-12-01T07:58:43.289Z,6.95
2022-12-01T08:01:12.163Z,6.90
2022-12-01T08:03:39.695Z,6.87
2022-12-01T08:06:07.756Z,6.90
2022-12-01T08:08:36.585Z,7.02
2022-12-01T08:11:08.406Z,7.04
2022-12-01T08:13:35.494Z,7.07
2022-12-01T08:16:06.552Z,7.07
2022-12-01T08:18:38.214Z,7.03
2022-12-01T08:21:06.458Z,7.06
2022-12-01T08:23:33.473Z,7.05
2022-12-01T08:26:04.693Z,7.07
2022-12-01T08:28:31.543Z,7.18
2022-12-01T08:30:58.683Z,7.14
2022-12-01T08:33:26.110Z,7.03
2022-12-01T08:35:53.042Z,6.92
2022-12-01T08:38:20.179Z,6.99
2022-12-01T08:40:48.001Z,7.09
2022-12-01T08:43:34.768Z,7.14
2022-12-01T08:46:02.781Z,7.17
2022-12-01T08:48:30.204Z,7.10
2022-12-01T08:51:18.529Z,7.18
2022-12-01T08:53:47.797Z,7.25
2022-12-01T08:56:29.355Z,7.29
2022-12-01T08:58:56.181Z,7.30
2022-12-01T09:01:23.199Z,7.28
2022-12-01T09:04:05.716Z,7.21
2022-12-01T09:06:43.878Z,6.97
2022-12-01T09:09:24.780Z,6.81
2022-12-01T09:11:52.481Z,6.90
2022-12-01T09:14:20.341Z,7.04
2022-12-01T09:16:50.180Z,7.18
2022-12-01T09:19:23.951Z,7.21
2022-12-01T09:21:51.634Z,7.14
2022-12-01T09:24:18.785Z,7.09
2022-12-01T09:26:46.025Z,7.06
2022-12-01T09:29:15.307Z,6.93
2022-12-01T09:31:43.169Z,6.85
2022-12-01T09:34:18.057Z,6.97
2022-12-01T09:36:46.112Z,7.04
2022-12-01T09:39:15.595Z,6.96
2022-12-01T09:42:08.416Z,7.00
2022-12-01T09:44:52.035Z,7.07
2022-12-01T09:47:26.608Z,6.99
2022-12-01T09:49:58.901Z,7.03
2022-12-01T09:52:28.345Z,7.07
2022-12-01T09:54:58.509Z,7.14
2022-12-01T09:57:28.314Z,7.13
2022-12-01T09:59:56.161Z,6.98
2022-12-01T10:02:33.922Z,6.93
2022-12-01T10:05:06.618Z,7.03
2022-12-01T10:07:38.928Z,7.27
2022-12-01T10:10:16.323Z,7.06
2022-12-01T10:12:46.327Z,6.85
2022-12-01T10:15:23.334Z,6.63
2022-12-01T10:18:03.455Z,6.58
2022-12-01T10:20:47.877Z,6.61
2022-12-01T10:23:34.003Z,6.52
2022-12-01T10:26:16.134Z,6.50
2022-12-01T10:29:16.913Z,6.46
2022-12-01T10:31:58.692Z,6.48
2022-12-01T10:34:39.654Z,6.59
2022-12-01T10:37:16.522Z,6.62
2022-12-01T10:39:45.030Z,6.61
2022-12-01T10:42:27.132Z,6.69
2022-12-01T10:44:55.781Z,6.76
2022-12-01T10:47:25.779Z,6.90
2022-12-01T10:49:53.297Z,6.92
2022-12-01T10:52:34.118Z,6.91
2022-12-01T10:55:02.206Z,6.92
2022-12-01T10:57:30.915Z,6.94
2022-12-01T11:00:00.482Z,6.92
2022-12-01T11:02:29.920Z,7.06
2022-12-01T11:05:19.556Z,7.34
2022-12-01T11:07:47.863Z,7.51
2022-12-01T11:10:25.284Z,7.66
2022-12-01T11:13:34.080Z,7.88
2022-12-01T11:16:04.620Z,8.04
2022-12-01T11:18:33.493Z,8.00
2022-12-01T11:21:16.900Z,7.90
2022-12-01T11:23:52.572Z,7.78
2022-12-01T11:26:33.180Z,7.75
2022-12-01T11:29:36.987Z,7.63
2022-12-01T11:32:20.400Z,7.30
2022-12-01T11:38:27.680Z,7.22
2022-12-01T11:41:01.875Z,7.21
2022-12-01T11:43:36.709Z,7.10
2022-12-01T11:46:06.017Z,7.12
2022-12-01T11:48:35.612Z,6.96
2022-12-01T11:51:08.030Z,7.11
2022-12-01T11:53:38.808Z,7.14
2022-12-01T11:56:28.939Z,7.25
2022-12-01T11:59:03.793Z,7.28
2022-12-01T12:01:58.776Z,7.14
2022-12-01T12:04:43.981Z,6.92
2022-12-01T12:07:20.435Z,6.87
2022-12-01T12:09:54.414Z,6.90
2022-12-01T12:12:37.681Z,6.89
2022-12-01T12:15:59.129Z,7.06
2022-12-01T12:18:36.807Z,7.26
2022-12-01T12:21:16.008Z,7.32
2022-12-01T12:23:59.505Z,7.24
2022-12-01T12:26:53.195Z,7.07
2022-12-01T12:29:29.575Z,7.06
2022-12-01T12:32:15.030Z,7.09
2022-12-01T12:34:49.259Z,7.08
2022-12-01T12:37:54.733Z,7.15
2022-12-01T12:40:38.156Z,7.20
2022-12-01T12:43:29.551Z,7.36
2022-12-01T12:46:14.212Z,7.40
2022-12-01T12:49:04.003Z,7.38
2022-12-01T12:51:46.662Z,7.23
2022-12-01T12:54:43.547Z,7.21
2022-12-01T12:57:41.229Z,7.15
2022-12-01T13:00:14.315Z,7.09
2022-12-01T13:02:43.142Z,7.13
2022-12-01T13:05:10.733Z,7.22
2022-12-01T13:07:43.281Z,7.12
2022-12-01T13:10:35.449Z,7.00
2022-12-01T13:13:21.085Z,6.96
2022-12-01T13:15:56.008Z,6.85
2022-12-01T13:18:26.053Z,6.89
2022-12-01T13:20:54.880Z,7.00
2022-12-01T13:23:22.951Z,6.94
2022-12-01T13:25:53.433Z,6.71
2022-12-01T13:28:23.631Z,6.59
2022-12-01T13:31:05.267Z,6.54
2022-12-01T13:33:33.403Z,6.62
2022-12-01T13:36:45.161Z,6.71
2022-12-01T13:39:19.537Z,6.70
2022-12-01T13:41:47.378Z,6.74
2022-12-01T13:44:20.202Z,6.75
2022-12-01T13:46:50.308Z,6.74
2022-12-01T13:49:51.104Z,6.85
2022-12-01T13:52:22.120Z,6.94
2022-12-01T13:55:07.730Z,6.76
2022-12-01T13:58:16.101Z,6.67
2022-12-01T14:00:43.924Z,6.59
2022-12-01T14:03:20.734Z,6.64
2022-12-01T14:05:57.952Z,6.74
2022-12-01T14:08:30.433Z,6.67
2022-12-01T14:11:08.475Z,6.57
2022-12-01T14:13:58.065Z,6.65
2022-12-01T14:16:25.406Z,6.76
2022-12-01T14:19:01.444Z,6.93
2022-12-01T14:21:47.389Z,7.16
2022-12-01T14:24:23.953Z,7.17
2022-12-01T14:26:51.737Z,7.23
2022-12-01T14:29:27.907Z,7.10
2022-12-01T14:31:54.901Z,7.11
2022-12-01T14:34:24.650Z,7.12
2022-12-01T14:36:59.599Z,7.18
2022-12-01T14:39:32.420Z,7.31
2022-12-01T14:42:03.710Z,7.47
2022-12-01T14:44:38.515Z,7.55
2022-12-01T14:47:09.779Z,7.59
2022-12-01T14:50:12.541Z,7.67
2022-12-01T14:52:42.560Z,7.65
2022-12-01T14:55:28.125Z,7.72
2022-12-01T14:58:05.277Z,7.75
2022-12-01T15:00:35.672Z,7.76
2022-12-01T15:03:07.729Z,7.82
2022-12-01T15:05:40.365Z,7.83
2022-12-01T15:08:43.442Z,7.90
2022-12-01T15:11:30.281Z,7.94
2022-12-01T15:13:57.728Z,7.92
2022-12-01T15:16:27.128Z,7.91
2022-12-01T15:18:54.464Z,7.91
2022-12-01T15:21:30.029Z,7.89
2022-12-01T15:24:00.936Z,7.86
2022-12-01T15:26:31.377Z,7.86
2022-12-01T15:29:05.629Z,7.86
2022-12-01T15:31:32.880Z,7.87
2022-12-01T15:33:59.772Z,7.92
2022-12-01T15:36:26.690Z,8.02
2022-12-01T15:38:53.732Z,8.10
2022-12-01T15:41:30.220Z,8.19
2022-12-01T15:43:59.360Z,8.29
2022-12-01T15:46:34.606Z,8.38
2022-12-01T15:49:19.232Z,8.47
2022-12-01T15:51:50.073Z,8.53
2022-12-01T15:54:21.319Z,8.71
2022-12-01T15:56:54.395Z,8.68
2022-12-01T15:59:42.451Z,8.73
2022-12-01T16:02:21.492Z,8.76
2022-12-01T16:04:49.662Z,8.82
2022-12-01T16:07:16.607Z,8.86
2022-12-01T16:09:56.198Z,8.92
2022-12-01T16:12:25.582Z,8.97
2022-12-01T16:15:01.452Z,9.00
2022-12-01T16:17:41.142Z,9.02
2022-12-01T16:20:23.145Z,9.06
2022-12-01T16:22:58.819Z,9.09
2022-12-01T16:25:42.142Z,9.12
2022-12-01T16:28:33.021Z,9.17
2022-12-01T16:30:59.759Z,9.28
2022-12-01T16:33:28.091Z,9.24
2022-12-01T16:35:55.909Z,9.24
2022-12-01T16:38:25.310Z,9.24
2022-12-01T16:40:55.103Z,9.26
2022-12-01T16:43:24.185Z,9.27
2022-12-01T16:45:58.608Z,9.27
2022-12-01T16:48:25.537Z,9.26
2022-12-01T16:50:54.085Z,9.27
2022-12-01T16:53:20.952Z,9.31
2022-12-01T16:55:51.310Z,9.34
2022-12-01T16:58:18.528Z,9.37
2022-12-01T17:00:45.513Z,9.38
2022-12-01T17:03:14.518Z,9.37
2022-12-01T17:05:41.414Z,9.30
2022-12-01T17:08:08.233Z,9.27
2022-12-01T17:10:35.366Z,9.29
2022-12-01T17:13:02.191Z,9.31
2022-12-01T17:15:30.883Z,9.35
2022-12-01T17:17:57.698Z,9.35
2022-12-01T17:20:25.829Z,9.38
2022-12-01T17:22:52.743Z,9.41
2022-12-01T17:25:19.415Z,9.42
2022-12-01T17:27:46.446Z,9.42
2022-12-01T17:30:13.598Z,9.40
2022-12-01T17:32:40.338Z,9.34
2022-12-01T17:35:07.767Z,9.36
2022-12-01T17:37:36.931Z,9.39
2022-12-01T17:40:05.975Z,9.42
2022-12-01T17:42:33.963Z,9.43
2022-12-01T17:45:00.892Z,9.37
2022-12-01T17:47:28.042Z,9.35
2022-12-01T17:49:54.993Z,9.34
2022-12-01T17:52:26.723Z,9.35
2022-12-01T17:54:56.475Z,9.31
2022-12-01T17:57:23.247Z,9.32
2022-12-01T17:59:50.190Z,9.32
2022-12-01T18:02:17.028Z,9.31
2022-12-01T18:04:44.170Z,9.33
2022-12-01T18:07:11.799Z,9.28
2022-12-01T18:09:40.679Z,9.23
2022-12-01T18:12:07.465Z,9.22
2022-12-01T18:14:34.693Z,9.22
2022-12-01T18:17:01.502Z,9.25
2022-12-01T18:19:28.498Z,9.22
2022-12-01T18:21:55.257Z,9.23
2022-12-01T18:24:21.990Z,9.29
2022-12-01T18:26:49.029Z,9.33
2022-12-01T18:29:24.012Z,9.31
2022-12-01T18:31:50.848Z,9.30
2022-12-01T18:34:17.690Z,9.30
2022-12-01T18:36:45.127Z,9.31
2022-12-01T18:39:12.144Z,9.33
2022-12-01T18:41:39.580Z,9.33
2022-12-01T18:44:06.822Z,9.33
2022-12-01T18:46:34.134Z,9.32
2022-12-01T18:49:03.007Z,9.31
2022-12-01T18:51:31.655Z,9.29
2022-12-01T18:54:00.777Z,9.23
2022-12-01T18:56:28.397Z,9.18
2022-12-01T18:58:59.548Z,9.21
2022-12-01T19:01:37.884Z,9.24
2022-12-01T19:04:06.258Z,9.30
2022-12-01T19:06:35.230Z,9.34
2022-12-01T19:09:04.595Z,9.36
2022-12-01T19:11:31.964Z,9.38
2022-12-01T19:13:58.971Z,9.41
2022-12-01T19:16:26.131Z,9.38
2022-12-01T19:18:53.160Z,9.38
2022-12-01T19:21:20.542Z,9.40
2022-12-01T19:23:48.493Z,9.43
2022-12-01T19:26:17.482Z,9.45
2022-12-01T19:28:45.829Z,9.46
2022-12-01T19:31:19.369Z,9.48
2022-12-01T19:33:47.155Z,9.50
2022-12-01T19:36:17.074Z,9.50
2022-12-01T19:41:31.002Z,9.54
2022-12-01T19:43:58.245Z,9.53
2022-12-01T19:46:27.527Z,9.54
2022-12-01T19:49:03.027Z,9.54
2022-12-01T19:51:35.417Z,9.55
2022-12-01T19:54:07.024Z,9.54
2022-12-01T19:56:34.674Z,9.53
2022-12-01T19:59:02.013Z,9.54
2022-12-01T20:01:29.376Z,9.55
2022-12-01T20:03:56.162Z,9.57
2022-12-01T20:06:25.894Z,9.58
2022-12-01T20:08:55.189Z,9.58
2022-12-01T20:11:23.275Z,9.58
2022-12-01T20:13:53.847Z,9.56
2022-12-01T20:16:25.830Z,9.56
2022-12-01T20:18:55.929Z,9.55
2022-12-01T20:21:26.317Z,9.54
2022-12-01T20:24:10.376Z,9.54
2022-12-01T20:26:48.426Z,9.51
2022-12-01T20:29:18.482Z,9.52
2022-12-01T20:31:46.152Z,9.52
2022-12-01T20:34:16.107Z,9.45
2022-12-01T20:36:43.498Z,9.43
2022-12-01T20:39:11.495Z,9.42
2022-12-01T20:41:39.417Z,9.35
2022-12-01T20:44:07.845Z,9.32
2022-12-01T20:46:36.170Z,9.33
2022-12-01T20:49:04.894Z,9.34
2022-12-01T20:51:33.471Z,9.35
2022-12-01T20:54:26.667Z,9.33
2022-12-01T20:56:48.482Z,9.35
2022-12-01T20:59:15.132Z,9.33
2022-12-01T21:01:41.977Z,9.37
2022-12-01T21:04:08.797Z,9.37
2022-12-01T21:06:35.549Z,9.26
2022-12-01T21:09:04.196Z,9.18
2022-12-01T21:11:54.014Z,9.21
2022-12-01T21:14:48.737Z,9.26
2022-12-01T21:17:26.070Z,9.27
2022-12-01T21:20:32.810Z,9.26
2022-12-01T21:23:10.552Z,9.30
2022-12-01T21:26:28.479Z,9.35
2022-12-01T21:28:59.337Z,9.33
2022-12-01T21:31:26.496Z,9.35
2022-12-01T21:33:53.923Z,9.38
2022-12-01T21:36:22.605Z,9.38
2022-12-01T21:38:58.963Z,9.40
2022-12-01T21:41:29.375Z,9.40
2022-12-01T21:44:01.455Z,9.41
2022-12-01T21:46:28.468Z,9.35
2022-12-01T21:48:55.359Z,9.36
2022-12-01T21:51:23.629Z,9.39
2022-12-01T21:53:52.493Z,9.36
2022-12-01T21:56:25.405Z,9.28
2022-12-01T21:58:52.936Z,9.24
2022-12-01T22:01:30.691Z,9.22
2022-12-01T22:04:02.410Z,9.18
2022-12-01T22:06:40.400Z,9.15
2022-12-01T22:09:13.217Z,9.14
2022-12-01T22:11:42.696Z,9.13
2022-12-01T22:14:19.082Z,9.20
2022-12-01T22:16:54.562Z,9.25
2022-12-01T22:19:25.045Z,9.28
2022-12-01T22:21:57.770Z,9.34
2022-12-01T22:24:26.686Z,9.38
2022-12-01T22:27:05.362Z,9.42
2022-12-01T22:29:39.597Z,9.43
2022-12-01T22:32:12.182Z,9.46
2022-12-01T22:34:40.065Z,9.47
2022-12-01T22:37:36.890Z,9.50
2022-12-01T22:40:42.069Z,9.50
2022-12-01T22:43:17.728Z,9.51
2022-12-01T22:45:49.640Z,9.52
2022-12-01T22:48:42.325Z,9.51
2022-12-01T22:51:28.989Z,9.52
2022-12-01T22:54:01.781Z,9.51
2022-12-01T22:56:35.877Z,9.53
2022-12-01T22:59:22.124Z,9.53
2022-12-01T23:01:57.435Z,9.53
2022-12-01T23:04:33.474Z,9.55
2022-12-01T23:07:09.772Z,9.56
2022-12-01T23:09:45.589Z,9.53
2022-12-01T23:12:12.326Z,9.53
2022-12-01T23:14:42.573Z,9.50
2022-12-01T23:17:17.354Z,9.50
2022-12-01T23:19:44.190Z,9.50
2022-12-01T23:22:11.311Z,9.44
2022-12-01T23:24:39.392Z,9.43
2022-12-01T23:27:06.784Z,9.41
2022-12-01T23:29:34.404Z,9.35
2022-12-01T23:32:01.395Z,9.33
2022-12-01T23:34:28.261Z,9.34
2022-12-01T23:36:55.117Z,9.35
2022-12-01T23:39:30.836Z,9.37
2022-12-01T23:41:57.687Z,9.40
2022-12-01T23:44:38.815Z,9.41
2022-12-01T23:47:22.862Z,9.36
2022-12-01T23:50:00.518Z,9.35
2022-12-01T23:52:34.061Z,9.30
2022-12-01T23:55:01.258Z,9.28
2022-12-01T23:57:27.889Z,9.32
2022-12-01T23:59:58.918Z,9.35
